Time;durP1;ratioP1;P1;durP2;ratioP2;P2;SDS_P1;SDS_P2;PMS_P1;PMS_P2;Temp;Humidity;BMP_temperature;BMP_pressure;BME280_temperature;BME280_humidity;BME280_pressure;Samples;Min_cycle;Max_cycle;Signal;HPM_P1;HPM_P2
2024/01/31 00:01:10;;;;;;;6.15;3.47;;;6.90;99.90;;;;;;5037221;28;20203;-76
2024/01/31 00:03:38;;;;;;;4.47;2.45;;;7.00;99.90;;;;;;5037830;28;20235;-77
2024/01/31 00:06:05;;;;;;;5.00;2.72;;;7.00;99.90;;;;;;5038034;28;20211;-76
2024/01/31 00:08:32;;;;;;;4.95;2.80;;;6.90;99.90;;;;;;5037364;28;20208;-76
2024/01/31 00:10:59;;;;;;;8.65;3.17;;;7.00;99.90;;;;;;5039004;28;20599;-76
2024/01/31 00:13:26;;;;;;;4.03;2.58;;;7.00;99.90;;;;;;5037193;28;20236;-76
2024/01/31 00:15:53;;;;;;;5.40;2.75;;;7.00;99.90;;;;;;5039317;28;20220;-76
2024/01/31 00:18:20;;;;;;;3.22;2.92;;;7.10;99.90;;;;;;5037163;28;20225;-76
2024/01/31 00:20:48;;;;;;;3.78;3.10;;;7.10;99.90;;;;;;5039456;28;20221;-76
2024/01/31 00:23:14;;;;;;;5.75;2.55;;;7.10;99.90;;;;;;5045630;28;20229;-76
2024/01/31 00:25:41;;;;;;;6.68;3.10;;;7.10;99.90;;;;;;5044327;28;20213;-76
2024/01/31 00:28:08;;;;;;;5.65;2.92;;;7.20;99.90;;;;;;5037883;28;20208;-76
2024/01/31 00:30:35;;;;;;;5.68;3.83;;;7.20;99.90;;;;;;5037780;28;20228;-76
2024/01/31 00:33:01;;;;;;;3.55;3.03;;;7.20;99.90;;;;;;5038969;28;20239;-76
2024/01/31 00:35:28;;;;;;;3.22;2.92;;;7.30;99.90;;;;;;5037201;28;20216;-76
2024/01/31 00:37:56;;;;;;;3.15;2.75;;;7.20;99.90;;;;;;5039901;28;20236;-76
2024/01/31 00:40:23;;;;;;;2.78;2.50;;;7.30;99.90;;;;;;5037327;28;20210;-76
2024/01/31 00:42:49;;;;;;;3.15;2.75;;;7.30;99.90;;;;;;5039955;28;20237;-76
2024/01/31 00:45:16;;;;;;;3.00;2.67;;;7.30;99.90;;;;;;5037053;28;20211;-76
2024/01/31 00:47:43;;;;;;;2.20;2.00;;;7.30;99.90;;;;;;5039081;28;20218;-76
2024/01/31 00:50:11;;;;;;;2.90;2.47;;;7.30;99.90;;;;;;5038148;28;20208;-76
2024/01/31 00:52:38;;;;;;;3.20;2.60;;;7.30;99.90;;;;;;5038760;28;20229;-76
2024/01/31 00:55:07;;;;;;;3.38;3.08;;;7.30;99.90;;;;;;5038719;28;20208;-76
2024/01/31 00:57:34;;;;;;;2.88;2.33;;;7.30;99.90;;;;;;5037826;28;20221;-76
2024/01/31 01:00:01;;;;;;;3.53;2.90;;;7.30;99.90;;;;;;5039417;28;20209;-76
2024/01/31 01:02:28;;;;;;;3.25;2.90;;;7.30;99.90;;;;;;5037552;28;20731;-76
2024/01/31 01:04:56;;;;;;;2.92;2.55;;;7.30;99.90;;;;;;5040151;28;20330;-77
2024/01/31 01:07:22;;;;;;;4.75;2.80;;;7.30;99.90;;;;;;5037585;28;20213;-76
2024/01/31 01:09:49;;;;;;;3.70;3.40;;;7.30;99.90;;;;;;5040333;28;20232;-76
2024/01/31 01:12:17;;;;;;;5.88;4.15;;;7.30;99.90;;;;;;5037040;28;20244;-76
2024/01/31 01:14:44;;;;;;;4.35;2.50;;;7.30;99.90;;;;;;5039127;28;20212;-74
2024/01/31 01:17:11;;;;;;;3.08;2.85;;;7.30;99.90;;;;;;5038805;28;20204;-75
2024/01/31 01:19:37;;;;;;;4.63;3.13;;;7.30;99.90;;;;;;5038911;28;20206;-75
2024/01/31 01:22:04;;;;;;;4.30;3.70;;;7.30;99.90;;;;;;5039592;28;20219;-76
2024/01/31 01:24:31;;;;;;;5.40;3.15;;;7.30;99.90;;;;;;5038144;28;20251;-75
2024/01/31 01:26:58;;;;;;;2.83;2.58;;;7.30;99.90;;;;;;5046083;28;20212;-75
2024/01/31 01:29:26;;;;;;;3.15;2.35;;;7.30;99.90;;;;;;5044859;28;20209;-75
2024/01/31 01:31:53;;;;;;;4.50;3.17;;;7.20;99.90;;;;;;5047928;28;20693;-75
2024/01/31 01:34:19;;;;;;;4.88;3.00;;;7.20;99.90;;;;;;5045198;28;20202;-75
2024/01/31 01:36:46;;;;;;;5.10;3.47;;;7.20;99.90;;;;;;5047605;28;20213;-75
2024/01/31 01:39:13;;;;;;;4.68;4.00;;;7.20;99.90;;;;;;5046063;28;20608;-75
2024/01/31 01:41:40;;;;;;;3.70;2.90;;;7.20;99.90;;;;;;5045789;28;20209;-75
2024/01/31 01:44:06;;;;;;;4.00;2.75;;;7.20;99.90;;;;;;5045976;28;20235;-75
2024/01/31 01:46:36;;;;;;;2.95;2.67;;;7.20;99.90;;;;;;5044018;28;20213;-75
2024/01/31 01:49:04;;;;;;;4.50;3.00;;;7.20;99.90;;;;;;5046171;28;20204;-75
2024/01/31 01:51:30;;;;;;;4.25;3.13;;;7.20;99.90;;;;;;5045014;28;20211;-75
2024/01/31 01:53:57;;;;;;;4.65;3.17;;;7.20;99.90;;;;;;5043685;28;20239;-76
2024/01/31 01:56:24;;;;;;;3.40;3.10;;;7.20;99.90;;;;;;5051383;28;20221;-75
2024/01/31 01:58:53;;;;;;;3.70;2.80;;;7.30;99.90;;;;;;5050728;28;20243;-75
2024/01/31 02:01:20;;;;;;;3.70;3.10;;;7.20;99.90;;;;;;5039314;28;20701;-75
2024/01/31 02:03:54;;;;;;;5.90;2.80;;;7.20;99.90;;;;;;5040653;28;20616;-76
2024/01/31 02:06:22;;;;;;;5.13;3.33;;;7.20;99.90;;;;;;5038089;28;20218;-75
2024/01/31 02:08:50;;;;;;;4.25;3.55;;;7.20;99.90;;;;;;5040495;28;20304;-76
2024/01/31 02:11:17;;;;;;;3.70;3.05;;;7.20;99.90;;;;;;5039123;28;20213;-76
2024/01/31 02:13:43;;;;;;;5.63;3.28;;;7.20;99.90;;;;;;5040013;28;20256;-76
2024/01/31 02:16:10;;;;;;;3.97;2.90;;;7.20;99.90;;;;;;5039731;28;20218;-75
2024/01/31 02:18:37;;;;;;;3.97;3.20;;;7.20;99.90;;;;;;5038994;28;20710;-76
2024/01/31 02:21:05;;;;;;;2.63;2.25;;;7.20;99.90;;;;;;5040817;28;20663;-76
2024/01/31 02:23:33;;;;;;;3.30;2.75;;;7.20;99.90;;;;;;5038417;28;20222;-75
2024/01/31 02:26:00;;;;;;;5.97;3.35;;;7.20;99.90;;;;;;5044836;28;20311;-76
2024/01/31 02:28:27;;;;;;;3.60;3.30;;;7.20;99.90;;;;;;5054648;28;20204;-76
2024/01/31 02:30:54;;;;;;;4.25;2.92;;;7.20;99.90;;;;;;5056942;28;20211;-76
2024/01/31 02:33:21;;;;;;;6.25;3.38;;;7.20;99.90;;;;;;5048122;28;20502;-76
2024/01/31 02:35:47;;;;;;;3.22;2.85;;;7.20;99.90;;;;;;5044762;28;20213;-76
2024/01/31 02:38:14;;;;;;;4.40;3.03;;;7.20;99.90;;;;;;5044217;28;20232;-76
2024/01/31 02:40:42;;;;;;;3.47;3.17;;;7.20;99.90;;;;;;5044066;28;20209;-76
2024/01/31 02:43:09;;;;;;;7.88;3.40;;;7.20;99.90;;;;;;5044895;28;20225;-76
2024/01/31 02:45:36;;;;;;;4.28;3.40;;;7.20;99.90;;;;;;5043075;28;20216;-75
2024/01/31 02:48:03;;;;;;;3.25;2.70;;;7.20;99.90;;;;;;5046064;28;20735;-75
2024/01/31 02:50:31;;;;;;;3.58;2.83;;;7.20;99.90;;;;;;5042884;28;20212;-76
2024/01/31 02:52:58;;;;;;;3.28;2.95;;;7.20;99.90;;;;;;5042115;28;20228;-76
2024/01/31 02:55:24;;;;;;;4.05;3.15;;;7.10;99.90;;;;;;5042742;28;20225;-76
2024/01/31 02:57:52;;;;;;;2.30;2.10;;;7.20;99.90;;;;;;5045526;28;20236;-75
2024/01/31 03:00:19;;;;;;;3.35;2.90;;;7.20;99.90;;;;;;5043573;28;20223;-76
2024/01/31 03:02:46;;;;;;;3.10;2.80;;;7.10;99.90;;;;;;5044669;28;20240;-76
2024/01/31 03:05:13;;;;;;;5.88;3.42;;;7.10;99.90;;;;;;5044597;28;20593;-76
2024/01/31 03:07:40;;;;;;;4.57;2.95;;;7.10;99.90;;;;;;5048128;28;20300;-76
2024/01/31 03:10:09;;;;;;;4.13;3.35;;;7.10;99.90;;;;;;5045649;28;20663;-75
2024/01/31 03:12:36;;;;;;;4.05;3.53;;;7.10;99.90;;;;;;5044004;28;20260;-76
2024/01/31 03:15:05;;;;;;;2.97;2.58;;;7.10;99.90;;;;;;5046249;28;20209;-76
2024/01/31 03:17:35;;;;;;;2.75;2.55;;;7.00;99.90;;;;;;5059614;28;20604;-76
2024/01/31 03:20:03;;;;;;;3.92;3.40;;;7.00;99.90;;;;;;5046645;28;20300;-76
2024/01/31 03:22:30;;;;;;;3.00;2.70;;;7.00;99.90;;;;;;5042825;28;20317;-77
2024/01/31 03:24:57;;;;;;;3.78;3.05;;;6.90;99.90;;;;;;5041833;28;20204;-76
2024/01/31 03:27:23;;;;;;;3.10;2.80;;;6.90;99.90;;;;;;5044038;28;20201;-77
2024/01/31 03:29:50;;;;;;;4.50;3.35;;;6.90;99.90;;;;;;5045696;28;20205;-76
2024/01/31 03:32:18;;;;;;;4.07;3.00;;;6.90;99.90;;;;;;5044856;28;20240;-76
2024/01/31 03:34:45;;;;;;;3.53;3.22;;;6.80;99.90;;;;;;5045026;28;20213;-75
2024/01/31 03:37:12;;;;;;;2.80;2.60;;;6.80;99.90;;;;;;5045538;28;20217;-76
2024/01/31 03:39:39;;;;;;;3.10;2.80;;;6.80;99.90;;;;;;5044230;28;20595;-76
2024/01/31 03:42:06;;;;;;;3.70;2.38;;;6.80;99.90;;;;;;5046677;28;20682;-76
2024/01/31 03:44:33;;;;;;;5.32;2.83;;;6.70;99.90;;;;;;5046698;28;20202;-76
2024/01/31 03:47:00;;;;;;;5.45;3.08;;;6.70;99.90;;;;;;5046538;28;20208;-77
2024/01/31 03:49:28;;;;;;;3.45;2.60;;;6.70;99.90;;;;;;5043665;28;20650;-76
2024/01/31 03:51:54;;;;;;;3.33;3.03;;;6.80;99.90;;;;;;5046314;28;20255;-76
2024/01/31 03:54:21;;;;;;;4.18;3.40;;;6.80;99.90;;;;;;5044776;28;20209;-76
2024/01/31 03:56:48;;;;;;;3.88;2.70;;;6.80;99.90;;;;;;5045335;28;20224;-76
2024/01/31 03:59:15;;;;;;;4.00;3.30;;;6.80;99.90;;;;;;5045453;28;20259;-77
2024/01/31 04:01:42;;;;;;;6.50;3.22;;;6.80;99.90;;;;;;5054047;28;20604;-76
2024/01/31 04:04:08;;;;;;;4.00;3.15;;;6.80;99.90;;;;;;5060810;28;20231;-76
2024/01/31 04:06:36;;;;;;;3.67;3.17;;;6.80;99.90;;;;;;5043918;28;20217;-76
2024/01/31 04:09:05;;;;;;;3.08;2.78;;;6.80;99.90;;;;;;5047189;28;20198;-76
2024/01/31 04:11:34;;;;;;;3.75;2.78;;;6.90;99.90;;;;;;5048607;28;20300;-76
2024/01/31 04:14:01;;;;;;;3.58;3.03;;;6.90;99.90;;;;;;5051676;28;20692;-76
2024/01/31 04:16:28;;;;;;;3.92;3.50;;;6.90;99.90;;;;;;5046727;28;20674;-75
2024/01/31 04:18:54;;;;;;;3.95;2.90;;;6.90;99.90;;;;;;5049560;28;20220;-75
2024/01/31 04:21:22;;;;;;;4.43;3.40;;;6.90;99.90;;;;;;5046695;28;20208;-76
2024/01/31 04:23:50;;;;;;;4.95;2.55;;;6.80;99.90;;;;;;5049664;28;20234;-75
2024/01/31 04:26:17;;;;;;;4.25;2.60;;;6.80;99.90;;;;;;5048106;28;20218;-75
2024/01/31 04:28:43;;;;;;;3.20;2.83;;;6.80;99.90;;;;;;5044851;28;20205;-76
2024/01/31 04:31:13;;;;;;;4.57;2.67;;;6.90;99.90;;;;;;5046448;28;20696;-76
2024/01/31 04:33:40;;;;;;;2.55;2.35;;;6.80;99.90;;;;;;5044354;28;20229;-76
2024/01/31 04:36:07;;;;;;;3.65;2.90;;;6.80;99.90;;;;;;5049131;28;20204;-76
2024/01/31 04:38:34;;;;;;;3.33;2.58;;;6.80;99.90;;;;;;5046325;28;20231;-75
2024/01/31 04:41:02;;;;;;;3.35;2.63;;;6.90;99.90;;;;;;5046603;28;20216;-75
2024/01/31 04:43:29;;;;;;;2.50;1.92;;;6.90;99.90;;;;;;5043986;28;20301;-76
2024/01/31 04:45:56;;;;;;;2.85;2.45;;;6.90;99.90;;;;;;5046263;28;20238;-76
2024/01/31 04:48:23;;;;;;;3.92;3.20;;;6.90;99.90;;;;;;5044210;28;20215;-75
2024/01/31 04:50:50;;;;;;;3.05;2.65;;;6.90;99.90;;;;;;5045639;28;20207;-76
2024/01/31 04:53:17;;;;;;;10.07;3.30;;;6.90;99.90;;;;;;5051510;28;20697;-77
2024/01/31 04:55:45;;;;;;;3.72;3.22;;;6.90;99.90;;;;;;5051461;28;20212;-76
2024/01/31 04:58:14;;;;;;;4.05;2.58;;;6.90;99.90;;;;;;5049550;28;20694;-76
2024/01/31 05:00:40;;;;;;;6.15;3.17;;;6.90;99.90;;;;;;5044137;28;20208;-75
2024/01/31 05:03:07;;;;;;;5.10;4.03;;;6.90;99.90;;;;;;5040576;28;20233;-75
2024/01/31 05:05:34;;;;;;;4.30;3.90;;;6.90;99.90;;;;;;5046736;28;20254;-74
2024/01/31 05:08:00;;;;;;;7.32;3.95;;;6.90;99.90;;;;;;5049211;28;20228;-75
2024/01/31 05:10:27;;;;;;;6.72;4.35;;;6.90;99.90;;;;;;5045054;28;20208;-74
2024/01/31 05:12:54;;;;;;;7.45;4.40;;;7.00;99.90;;;;;;5049850;28;20227;-75
2024/01/31 05:15:22;;;;;;;6.23;4.27;;;7.00;99.90;;;;;;5045222;28;20829;-75
2024/01/31 05:17:49;;;;;;;4.28;3.70;;;7.00;99.90;;;;;;5045129;28;20464;-76
2024/01/31 05:20:16;;;;;;;8.63;3.92;;;6.90;99.90;;;;;;5051289;28;20247;-75
2024/01/31 05:22:42;;;;;;;6.80;3.33;;;6.90;99.90;;;;;;5053039;28;20237;-76
2024/01/31 05:25:09;;;;;;;5.53;3.85;;;6.90;99.90;;;;;;5061372;28;20200;-76
2024/01/31 05:27:36;;;;;;;3.88;3.13;;;6.90;99.90;;;;;;5052242;28;20227;-80
2024/01/31 05:30:04;;;;;;;4.05;3.65;;;6.90;99.90;;;;;;5052138;28;20212;-79
2024/01/31 05:32:32;;;;;;;5.55;3.20;;;6.90;99.90;;;;;;5051371;28;20229;-79
2024/01/31 05:34:59;;;;;;;5.00;3.15;;;7.00;99.90;;;;;;5047697;28;20639;-80
2024/01/31 05:37:26;;;;;;;4.10;3.33;;;7.00;99.90;;;;;;5052847;28;20686;-78
2024/01/31 05:39:53;;;;;;;4.00;3.00;;;7.00;99.90;;;;;;5054622;28;20225;-78
2024/01/31 05:42:19;;;;;;;5.28;2.97;;;7.00;99.90;;;;;;5053434;28;20236;-79
2024/01/31 05:44:46;;;;;;;3.70;3.00;;;7.00;99.90;;;;;;5049949;28;20210;-79
2024/01/31 05:47:13;;;;;;;4.45;3.40;;;7.10;99.90;;;;;;5054044;28;20214;-80
2024/01/31 05:49:41;;;;;;;3.95;2.90;;;7.10;99.90;;;;;;5051883;28;20212;-79
2024/01/31 05:52:08;;;;;;;5.00;3.33;;;7.10;99.90;;;;;;5053894;28;20204;-79
2024/01/31 05:54:35;;;;;;;4.88;3.90;;;7.10;99.90;;;;;;5050887;28;20304;-79
2024/01/31 05:57:02;;;;;;;6.90;3.13;;;7.10;99.90;;;;;;5052782;28;20209;-78
2024/01/31 05:59:28;;;;;;;5.47;3.53;;;7.10;99.90;;;;;;5047692;28;20232;-77
2024/01/31 06:01:55;;;;;;;7.30;3.63;;;7.10;99.90;;;;;;5048170;28;20215;-76
2024/01/31 06:04:22;;;;;;;3.50;2.85;;;7.10;99.90;;;;;;5050211;28;20204;-77
2024/01/31 06:06:50;;;;;;;3.47;2.90;;;7.10;99.90;;;;;;5050350;28;20211;-77
2024/01/31 06:09:17;;;;;;;3.25;2.65;;;7.10;99.90;;;;;;5050599;28;20197;-77
2024/01/31 06:11:43;;;;;;;4.60;3.35;;;7.00;99.90;;;;;;5047627;28;20216;-77
2024/01/31 06:14:10;;;;;;;8.43;4.15;;;7.00;99.90;;;;;;5049593;28;20235;-77
2024/01/31 06:16:37;;;;;;;3.60;2.95;;;7.00;99.90;;;;;;5047691;28;20209;-77
2024/01/31 06:19:04;;;;;;;3.85;3.55;;;7.00;99.90;;;;;;5049285;28;20250;-77
2024/01/31 06:21:30;;;;;;;3.08;2.85;;;7.00;99.90;;;;;;5048101;28;20202;-77
2024/01/31 06:23:59;;;;;;;3.95;2.92;;;7.00;99.90;;;;;;5042245;28;20220;-77
2024/01/31 06:26:28;;;;;;;3.63;2.95;;;7.00;99.90;;;;;;5049085;28;20235;-77
2024/01/31 06:28:55;;;;;;;5.22;3.25;;;7.00;99.90;;;;;;5049133;28;20261;-78
2024/01/31 06:31:27;;;;;;;7.05;2.92;;;7.00;99.90;;;;;;5052480;28;20691;-80
2024/01/31 06:33:54;;;;;;;4.93;3.28;;;7.00;99.90;;;;;;5053912;28;20717;-80
2024/01/31 06:36:21;;;;;;;4.43;3.42;;;7.10;99.90;;;;;;5050588;28;20292;-80
2024/01/31 06:38:48;;;;;;;3.03;2.72;;;7.10;99.90;;;;;;5054682;28;20200;-77
2024/01/31 06:41:17;;;;;;;4.70;3.83;;;7.10;99.90;;;;;;5055521;28;20207;-77
2024/01/31 06:43:44;;;;;;;7.07;3.40;;;7.10;99.90;;;;;;5048076;28;20284;-77
2024/01/31 06:46:11;;;;;;;4.30;3.20;;;7.10;99.90;;;;;;5049012;28;20212;-77
2024/01/31 06:48:38;;;;;;;4.43;3.88;;;7.10;99.90;;;;;;5052342;28;20842;-80
2024/01/31 06:51:05;;;;;;;6.55;3.08;;;7.10;99.90;;;;;;5045865;28;20201;-79
2024/01/31 06:53:31;;;;;;;3.42;3.10;;;7.10;99.90;;;;;;5051464;28;20236;-78
2024/01/31 06:56:00;;;;;;;4.05;2.67;;;7.10;99.90;;;;;;5045510;28;20205;-81
2024/01/31 06:58:28;;;;;;;5.28;3.30;;;7.10;99.90;;;;;;5047173;28;20273;-81
2024/01/31 07:00:57;;;;;;;4.20;3.10;;;7.10;99.90;;;;;;5055008;28;20227;-79
2024/01/31 07:03:24;;;;;;;3.75;3.33;;;7.10;99.90;;;;;;5063912;28;20249;-79
2024/01/31 07:05:51;;;;;;;4.43;3.45;;;7.10;99.90;;;;;;5048260;28;20213;-79
2024/01/31 07:08:18;;;;;;;4.25;3.20;;;7.10;99.90;;;;;;5059051;28;20204;-80
2024/01/31 07:10:44;;;;;;;3.90;2.88;;;7.10;99.90;;;;;;5057206;28;20204;-79
2024/01/31 07:13:11;;;;;;;5.10;3.40;;;7.10;99.90;;;;;;5061284;28;20236;-81
2024/01/31 07:15:39;;;;;;;4.22;3.83;;;7.10;99.90;;;;;;5060334;28;20646;-81
2024/01/31 07:18:06;;;;;;;5.60;3.80;;;7.10;99.90;;;;;;5051999;28;20200;-82
2024/01/31 07:20:33;;;;;;;4.63;2.72;;;7.10;99.90;;;;;;5057071;28;20228;-82
2024/01/31 07:23:00;;;;;;;4.00;3.60;;;7.10;99.90;;;;;;5055025;28;20217;-82
2024/01/31 07:25:27;;;;;;;3.55;2.88;;;7.10;99.90;;;;;;5055027;28;20212;-85
2024/01/31 07:27:53;;;;;;;4.38;3.63;;;7.10;99.90;;;;;;5059298;28;20215;-82
2024/01/31 07:30:20;;;;;;;4.10;3.45;;;7.10;99.90;;;;;;5058806;28;20276;-81
2024/01/31 07:32:48;;;;;;;4.13;3.55;;;7.10;99.90;;;;;;5055362;28;20593;-81
2024/01/31 07:35:15;;;;;;;6.72;3.38;;;7.10;99.90;;;;;;5054674;28;20568;-82
2024/01/31 07:37:42;;;;;;;5.78;3.63;;;7.10;99.90;;;;;;5047856;28;20209;-81
2024/01/31 07:40:10;;;;;;;3.75;3.35;;;7.10;99.90;;;;;;5056707;28;20282;-85
2024/01/31 07:42:37;;;;;;;4.28;3.60;;;7.10;99.90;;;;;;5056092;28;20277;-82
2024/01/31 07:45:04;;;;;;;3.85;3.10;;;7.10;99.90;;;;;;5057122;28;20250;-80
2024/01/31 07:47:31;;;;;;;3.38;2.78;;;7.00;99.90;;;;;;5056341;28;20208;-78
2024/01/31 07:49:59;;;;;;;3.25;2.65;;;6.90;99.90;;;;;;5045073;28;20659;-78
2024/01/31 07:52:26;;;;;;;4.47;2.83;;;6.90;99.90;;;;;;5055169;28;20699;-81
2024/01/31 07:54:53;;;;;;;3.35;2.83;;;6.90;99.90;;;;;;5042768;28;20212;-80
2024/01/31 07:57:19;;;;;;;4.85;2.83;;;7.00;99.90;;;;;;5037187;28;20201;-78
2024/01/31 07:59:46;;;;;;;2.50;2.30;;;7.00;99.90;;;;;;5034880;28;20229;-80
2024/01/31 08:02:13;;;;;;;4.15;3.75;;;7.00;99.90;;;;;;5038500;28;20233;-80
2024/01/31 08:04:40;;;;;;;4.28;2.85;;;7.10;99.90;;;;;;5037574;28;20293;-79
2024/01/31 08:07:08;;;;;;;3.30;3.00;;;7.10;99.90;;;;;;5041775;28;20214;-78
2024/01/31 08:09:39;;;;;;;3.92;3.63;;;7.10;99.90;;;;;;5039591;28;20212;-80
2024/01/31 08:12:07;;;;;;;4.25;2.90;;;7.10;99.90;;;;;;5035873;28;20288;-81
2024/01/31 08:14:33;;;;;;;5.60;3.80;;;7.10;99.90;;;;;;5046556;28;20212;-80
2024/01/31 08:17:00;;;;;;;5.18;4.15;;;7.20;99.90;;;;;;5037374;28;20202;-80
2024/01/31 08:19:27;;;;;;;4.40;4.05;;;7.20;99.90;;;;;;5047984;28;20198;-80
2024/01/31 08:21:54;;;;;;;4.60;3.53;;;7.20;99.90;;;;;;5047611;28;20217;-79
2024/01/31 08:24:22;;;;;;;5.07;3.60;;;7.20;99.90;;;;;;5040455;28;20445;-79
2024/01/31 08:26:50;;;;;;;6.93;3.88;;;7.20;99.90;;;;;;5053911;28;20209;-79
2024/01/31 08:29:17;;;;;;;4.28;3.88;;;7.30;99.90;;;;;;5054394;28;20201;-82
2024/01/31 08:31:44;;;;;;;5.80;4.40;;;7.30;99.90;;;;;;5058351;28;20216;-82
2024/01/31 08:34:11;;;;;;;4.13;3.63;;;7.30;99.90;;;;;;5040907;28;20583;-80
2024/01/31 08:36:38;;;;;;;4.47;3.47;;;7.30;99.90;;;;;;5049306;28;20211;-80
2024/01/31 08:39:05;;;;;;;5.90;4.18;;;7.30;99.90;;;;;;5051570;28;20208;-78
2024/01/31 08:41:33;;;;;;;4.72;3.42;;;7.30;99.90;;;;;;5050769;28;20216;-79
2024/01/31 08:44:00;;;;;;;7.22;4.30;;;7.30;99.90;;;;;;5040372;28;20790;-79
2024/01/31 08:46:28;;;;;;;5.30;4.80;;;7.40;99.90;;;;;;5046256;28;20209;-79
2024/01/31 08:48:54;;;;;;;5.88;4.43;;;7.40;99.90;;;;;;5050380;28;20210;-78
2024/01/31 08:51:21;;;;;;;5.40;4.40;;;7.50;99.90;;;;;;5048857;28;20217;-78
2024/01/31 08:53:48;;;;;;;7.57;5.50;;;7.50;99.90;;;;;;5048744;28;20225;-79
2024/01/31 08:56:15;;;;;;;8.18;5.28;;;7.60;99.90;;;;;;5044968;28;20212;-79
2024/01/31 08:58:43;;;;;;;6.85;4.45;;;7.70;99.90;;;;;;5060503;28;20219;-79
2024/01/31 09:01:09;;;;;;;4.25;3.85;;;7.70;99.90;;;;;;5052150;28;20742;-78
2024/01/31 09:03:36;;;;;;;4.93;3.97;;;7.80;99.90;;;;;;5043782;28;20238;-79
2024/01/31 09:06:03;;;;;;;6.03;4.43;;;7.80;99.90;;;;;;5046490;28;20334;-78
2024/01/31 09:08:30;;;;;;;5.90;3.85;;;7.80;99.90;;;;;;5037863;28;20229;-77
2024/01/31 09:10:58;;;;;;;5.55;3.70;;;7.70;99.90;;;;;;5036342;28;20275;-81
2024/01/31 09:13:24;;;;;;;4.10;3.67;;;7.70;99.90;;;;;;5050951;28;20225;-78
2024/01/31 09:15:53;;;;;;;5.85;4.20;;;7.80;99.90;;;;;;5056082;28;20207;-81
2024/01/31 09:18:20;;;;;;;6.10;4.60;;;7.80;99.90;;;;;;5060557;28;20200;-80
2024/01/31 09:20:47;;;;;;;5.28;4.30;;;7.90;99.90;;;;;;5059120;28;20239;-78
2024/01/31 09:23:14;;;;;;;5.63;5.00;;;7.90;99.90;;;;;;5047113;28;20229;-80
2024/01/31 09:25:40;;;;;;;7.60;4.10;;;8.00;99.90;;;;;;5056922;28;20208;-79
2024/01/31 09:28:07;;;;;;;8.45;4.40;;;8.10;99.90;;;;;;5048290;28;20679;-79
2024/01/31 09:30:34;;;;;;;6.57;5.05;;;8.20;99.90;;;;;;5054294;28;20209;-79
2024/01/31 09:33:02;;;;;;;6.05;4.93;;;8.30;99.90;;;;;;5058490;28;20252;-78
2024/01/31 09:35:29;;;;;;;5.82;4.30;;;8.30;99.90;;;;;;5061381;28;20208;-78
2024/01/31 09:37:56;;;;;;;7.40;5.55;;;8.40;99.90;;;;;;5063245;28;20205;-80
2024/01/31 09:40:23;;;;;;;7.03;6.18;;;8.40;99.90;;;;;;5058985;28;20228;-81
2024/01/31 09:42:51;;;;;;;5.78;4.47;;;8.50;99.90;;;;;;5055764;28;20229;-80
2024/01/31 09:45:18;;;;;;;4.93;4.28;;;8.60;99.90;;;;;;5059292;28;20204;-82
2024/01/31 09:47:47;;;;;;;7.22;5.07;;;8.60;99.90;;;;;;5059877;28;20543;-81
2024/01/31 09:50:15;;;;;;;6.68;5.35;;;8.60;99.90;;;;;;5053636;28;20205;-79
2024/01/31 09:52:42;;;;;;;8.60;4.65;;;8.60;99.90;;;;;;5048274;28;20239;-79
2024/01/31 09:55:11;;;;;;;5.30;4.55;;;8.70;99.90;;;;;;5047589;28;20209;-81
2024/01/31 09:57:39;;;;;;;6.68;4.97;;;8.70;99.90;;;;;;5048909;28;20209;-80
2024/01/31 10:00:09;;;;;;;6.63;4.80;;;8.70;99.90;;;;;;5042164;28;20225;-80
2024/01/31 10:02:37;;;;;;;10.38;5.03;;;8.80;99.90;;;;;;5046965;28;20620;-83
2024/01/31 10:05:06;;;;;;;6.95;4.68;;;8.90;99.90;;;;;;5055444;28;20209;-81
2024/01/31 10:07:37;;;;;;;5.35;4.60;;;9.00;99.90;;;;;;5045607;28;20209;-82
2024/01/31 10:10:06;;;;;;;7.20;5.32;;;9.10;99.90;;;;;;5049709;28;20212;-82
2024/01/31 10:12:32;;;;;;;8.02;5.40;;;9.10;99.90;;;;;;5046784;28;20265;-81
2024/01/31 10:14:59;;;;;;;5.68;4.40;;;9.10;99.90;;;;;;5051160;28;20201;-82
2024/01/31 10:17:26;;;;;;;5.95;4.50;;;9.10;99.90;;;;;;5045978;28;20206;-83
2024/01/31 10:19:53;;;;;;;5.75;4.60;;;9.10;99.90;;;;;;5046514;28;20759;-81
2024/01/31 10:22:19;;;;;;;5.57;5.05;;;9.20;99.90;;;;;;5038648;28;20229;-82
2024/01/31 10:24:50;;;;;;;8.00;5.10;;;9.20;99.90;;;;;;5040811;28;20206;-81
2024/01/31 10:27:19;;;;;;;5.47;4.53;;;9.20;99.90;;;;;;5043281;28;20216;-81
2024/01/31 10:29:47;;;;;;;5.38;4.95;;;9.20;99.90;;;;;;5040878;28;20206;-81
2024/01/31 10:32:16;;;;;;;6.45;5.15;;;9.30;99.90;;;;;;5045173;28;20218;-81
2024/01/31 10:34:43;;;;;;;5.38;4.38;;;9.30;99.90;;;;;;5046782;28;20240;-79
2024/01/31 10:37:11;;;;;;;5.40;4.65;;;9.30;99.90;;;;;;5041843;28;20210;-78
2024/01/31 10:39:39;;;;;;;8.20;5.20;;;9.20;99.90;;;;;;5041468;28;20209;-81
2024/01/31 10:42:09;;;;;;;5.90;4.78;;;9.30;99.90;;;;;;5039932;28;20702;-80
2024/01/31 10:44:38;;;;;;;5.68;4.90;;;9.30;99.90;;;;;;5038154;28;20210;-79
2024/01/31 10:47:06;;;;;;;6.43;5.10;;;9.30;99.90;;;;;;5046774;28;20220;-79
2024/01/31 10:49:34;;;;;;;6.47;5.00;;;9.30;99.90;;;;;;5042781;28;20745;-81
2024/01/31 10:52:04;;;;;;;7.43;6.05;;;9.30;99.90;;;;;;5046309;28;20205;-81
2024/01/31 10:54:35;;;;;;;6.35;5.30;;;9.30;99.90;;;;;;5044407;28;20206;-82
2024/01/31 10:57:04;;;;;;;8.27;5.55;;;9.40;99.90;;;;;;5044409;28;20207;-79
2024/01/31 10:59:36;;;;;;;7.95;5.43;;;9.40;99.90;;;;;;5043900;28;20206;-82
2024/01/31 11:02:04;;;;;;;8.07;6.22;;;9.50;99.90;;;;;;5044604;28;20225;-81
2024/01/31 11:04:30;;;;;;;6.70;4.85;;;9.50;99.90;;;;;;5045122;28;20289;-80
2024/01/31 11:07:00;;;;;;;8.32;5.15;;;9.60;99.90;;;;;;5043691;28;20207;-77
2024/01/31 11:09:28;;;;;;;6.05;5.40;;;9.70;99.90;;;;;;5041340;28;20237;-78
2024/01/31 11:12:05;;;;;;;8.88;6.20;;;9.80;99.90;;;;;;5043173;28;20279;-78
2024/01/31 11:14:33;;;;;;;5.70;4.75;;;9.70;99.90;;;;;;5041157;28;20631;-78
2024/01/31 11:17:08;;;;;;;7.72;5.30;;;9.80;99.90;;;;;;5044496;28;20218;-78
2024/01/31 11:19:40;;;;;;;8.57;5.65;;;9.80;99.90;;;;;;5042075;28;20697;-78
2024/01/31 11:22:08;;;;;;;6.80;4.50;;;9.80;99.90;;;;;;5042310;28;20724;-78
2024/01/31 11:24:34;;;;;;;6.15;5.35;;;9.90;99.90;;;;;;5041839;28;20664;-78
2024/01/31 11:27:02;;;;;;;5.75;4.68;;;9.90;99.90;;;;;;5048346;28;20688;-78
2024/01/31 11:29:29;;;;;;;5.20;4.80;;;9.90;99.90;;;;;;5046517;28;20568;-78
2024/01/31 11:31:56;;;;;;;6.10;5.30;;;9.90;99.90;;;;;;5044037;28;20213;-78
2024/01/31 11:34:24;;;;;;;8.27;5.55;;;10.00;99.90;;;;;;5041492;28;20288;-77
2024/01/31 11:36:51;;;;;;;8.07;5.15;;;10.00;99.90;;;;;;5043693;28;20210;-78
2024/01/31 11:39:18;;;;;;;8.05;5.38;;;10.10;99.90;;;;;;5041407;28;20206;-78
2024/01/31 11:41:44;;;;;;;14.35;6.30;;;10.10;99.90;;;;;;5043275;28;20234;-78
2024/01/31 11:44:11;;;;;;;6.72;5.95;;;10.20;99.90;;;;;;5042147;28;20231;-77
2024/01/31 11:46:38;;;;;;;9.75;5.72;;;10.30;99.90;;;;;;5043006;28;20206;-78
2024/01/31 11:49:05;;;;;;;6.30;5.05;;;10.30;99.90;;;;;;5047044;28;20201;-77
2024/01/31 11:51:33;;;;;;;6.63;5.18;;;10.40;99.90;;;;;;5049149;28;20205;-78
2024/01/31 11:54:00;;;;;;;7.40;5.25;;;10.30;99.90;;;;;;5047625;28;20225;-78
2024/01/31 11:56:27;;;;;;;6.30;4.95;;;10.40;99.90;;;;;;5042570;28;20625;-78
2024/01/31 11:58:55;;;;;;;7.47;5.45;;;10.30;99.90;;;;;;5044722;28;20211;-78
2024/01/31 12:01:22;;;;;;;6.75;5.70;;;10.30;99.90;;;;;;5043878;28;20371;-78
2024/01/31 12:03:50;;;;;;;6.45;4.82;;;10.40;99.90;;;;;;5046436;28;20248;-78
2024/01/31 12:06:18;;;;;;;6.70;5.38;;;10.30;99.90;;;;;;5041093;28;20205;-78
2024/01/31 12:08:47;;;;;;;6.80;5.25;;;10.40;99.90;;;;;;5042660;28;20203;-77
2024/01/31 12:11:15;;;;;;;5.30;4.70;;;10.50;99.90;;;;;;5042251;28;20213;-78
2024/01/31 12:13:42;;;;;;;6.47;4.80;;;10.50;99.90;;;;;;5042659;28;20232;-77
2024/01/31 12:16:08;;;;;;;8.00;5.80;;;10.50;99.90;;;;;;5046316;28;20279;-78
2024/01/31 12:18:35;;;;;;;6.30;4.80;;;10.60;99.90;;;;;;5045528;28;20208;-78
2024/01/31 12:21:03;;;;;;;7.15;5.53;;;10.70;99.90;;;;;;5043185;28;20226;-78
2024/01/31 12:23:30;;;;;;;8.73;4.68;;;11.00;99.90;;;;;;5041200;28;20250;-78
2024/01/31 12:25:59;;;;;;;5.95;5.35;;;11.20;99.90;;;;;;5044770;28;20209;-79
2024/01/31 12:28:26;;;;;;;9.98;5.13;;;11.50;99.90;;;;;;5045938;28;20227;-78
2024/01/31 12:30:53;;;;;;;8.30;5.47;;;11.70;99.90;;;;;;5044916;28;20211;-78
2024/01/31 12:33:20;;;;;;;6.32;5.00;;;11.90;99.90;;;;;;5041933;28;20228;-79
2024/01/31 12:35:47;;;;;;;7.60;5.20;;;12.20;99.90;;;;;;5044098;28;20213;-79
2024/01/31 12:38:14;;;;;;;7.60;6.20;;;12.30;99.90;;;;;;5043181;28;20213;-79
2024/01/31 12:40:41;;;;;;;7.53;5.15;;;12.50;99.90;;;;;;5041651;28;20209;-75
2024/01/31 12:43:09;;;;;;;8.20;6.72;;;12.70;99.90;;;;;;5042105;28;20224;-76
2024/01/31 12:45:36;;;;;;;9.65;6.60;;;12.70;99.90;;;;;;5040064;28;20209;-76
2024/01/31 12:48:03;;;;;;;12.82;8.00;;;12.70;99.90;;;;;;5042899;28;20207;-77
2024/01/31 12:50:29;;;;;;;10.18;7.57;;;12.50;99.90;;;;;;5044058;28;20299;-76
2024/01/31 12:52:57;;;;;;;9.70;6.33;;;12.40;99.90;;;;;;5045949;28;20625;-78
2024/01/31 12:55:24;;;;;;;8.52;7.35;;;12.40;99.90;;;;;;5047040;28;20462;-79